Time;durP1;ratioP1;P1;durP2;ratioP2;P2;SDS_P1;SDS_P2;PMS_P1;PMS_P2;Temp;Humidity;BMP_temperature;BMP_pressure;BME280_temperature;BME280_humidity;BME280_pressure;Samples;Min_cycle;Max_cycle;Signal;HPM_P1;HPM_P2
2023/04/28 00:01:44;;;;;;;19.25;5.38;;;0.70;92.00;;;;;;4997902;28;20483;-79
2023/04/28 00:04:10;;;;;;;11.63;5.18;;;0.60;91.70;;;;;;4995717;28;20561;-79
2023/04/28 00:06:39;;;;;;;10.20;4.78;;;0.60;91.60;;;;;;5000908;28;20107;-79
2023/04/28 00:09:10;;;;;;;10.45;5.15;;;0.50;92.40;;;;;;5006743;23;20061;-79
2023/04/28 00:11:37;;;;;;;14.10;5.40;;;0.50;92.40;;;;;;4995304;28;20046;-79
2023/04/28 00:14:04;;;;;;;9.75;5.22;;;0.50;92.50;;;;;;4977704;28;20050;-78
2023/04/28 00:16:31;;;;;;;12.77;5.75;;;0.40;92.10;;;;;;4976040;28;20042;-79
2023/04/28 00:18:58;;;;;;;12.57;5.43;;;0.40;92.40;;;;;;4973715;28;20055;-79
2023/04/28 00:21:25;;;;;;;9.27;5.07;;;0.30;92.60;;;;;;4989917;28;20115;-79
2023/04/28 00:23:52;;;;;;;12.10;5.10;;;0.30;93.10;;;;;;4994909;28;20054;-79
2023/04/28 00:26:19;;;;;;;12.10;5.78;;;0.30;93.20;;;;;;4999116;28;20057;-79
2023/04/28 00:28:46;;;;;;;13.35;4.72;;;0.30;94.00;;;;;;4972443;28;20057;-79
2023/04/28 00:31:17;;;;;;;13.10;5.05;;;0.20;93.80;;;;;;4973384;28;20051;-80
2023/04/28 00:33:44;;;;;;;18.73;5.90;;;0.20;93.90;;;;;;4975692;28;20631;-79
2023/04/28 00:36:10;;;;;;;11.40;4.70;;;0.20;93.90;;;;;;4978045;28;20046;-79
2023/04/28 00:38:37;;;;;;;11.43;5.05;;;0.10;93.70;;;;;;4981760;28;20487;-79
2023/04/28 00:41:04;;;;;;;10.90;4.68;;;0.10;93.50;;;;;;4972773;28;20699;-79
2023/04/28 00:43:31;;;;;;;17.33;5.60;;;0.10;93.80;;;;;;4969629;28;20054;-79
2023/04/28 00:45:58;;;;;;;12.05;5.70;;;0.00;93.70;;;;;;4999686;28;20542;-79
2023/04/28 00:48:26;;;;;;;9.50;4.72;;;0.10;93.80;;;;;;4993129;28;20085;-79
2023/04/28 00:50:53;;;;;;;11.43;5.35;;;0.10;94.00;;;;;;4973252;28;20065;-79
2023/04/28 00:53:20;;;;;;;17.75;5.50;;;0.10;94.00;;;;;;4991898;28;20141;-79
2023/04/28 00:55:48;;;;;;;19.90;5.38;;;0.10;94.10;;;;;;4975907;28;20379;-79
2023/04/28 00:58:14;;;;;;;12.23;5.55;;;0.10;94.10;;;;;;4980694;28;20048;-79
2023/04/28 01:00:41;;;;;;;14.15;6.82;;;0.20;94.50;;;;;;4980577;28;20431;-79
2023/04/28 01:03:08;;;;;;;11.88;5.72;;;0.20;94.40;;;;;;4972669;28;20062;-79
2023/04/28 01:05:36;;;;;;;18.27;7.22;;;0.30;94.40;;;;;;4974158;28;20054;-80
2023/04/28 01:08:03;;;;;;;13.95;5.82;;;0.30;95.20;;;;;;4992744;28;20133;-79
2023/04/28 01:10:30;;;;;;;11.85;6.32;;;0.30;94.50;;;;;;5006458;28;20537;-79
2023/04/28 01:12:57;;;;;;;11.43;5.68;;;0.30;93.90;;;;;;5004887;28;20076;-79
2023/04/28 01:15:24;;;;;;;21.35;6.55;;;0.20;93.60;;;;;;4971855;28;20042;-79
2023/04/28 01:17:51;;;;;;;12.63;6.03;;;0.20;94.00;;;;;;4989762;28;20842;-79
2023/04/28 01:20:18;;;;;;;14.45;6.68;;;0.20;94.60;;;;;;4997178;28;20494;-78
2023/04/28 01:22:45;;;;;;;12.82;6.50;;;0.20;94.10;;;;;;4996026;28;20046;-78
2023/04/28 01:25:12;;;;;;;13.00;6.32;;;0.20;94.10;;;;;;4987728;28;20137;-79
2023/04/28 01:27:39;;;;;;;16.73;6.60;;;0.10;93.90;;;;;;4972376;28;20060;-78
2023/04/28 01:30:06;;;;;;;14.80;6.22;;;0.00;93.70;;;;;;4992177;28;20058;-78
2023/04/28 01:32:33;;;;;;;13.43;6.75;;;0.00;93.70;;;;;;4984153;28;20073;-79
2023/04/28 01:35:00;;;;;;;16.08;6.38;;;0.00;93.70;;;;;;4984838;28;20597;-79
2023/04/28 01:41:04;;;;;;;10.93;5.47;;;-0.10;94.10;;;;;;5019040;28;20047;-73
2023/04/28 01:43:30;;;;;;;12.93;6.22;;;-0.10;94.30;;;;;;5021509;28;20053;-73
2023/04/28 01:45:57;;;;;;;20.25;6.25;;;-0.10;94.40;;;;;;5018401;28;20135;-73
2023/04/28 01:48:24;;;;;;;21.83;6.63;;;-0.10;94.70;;;;;;5018435;28;20053;-73
2023/04/28 01:50:51;;;;;;;14.07;6.75;;;-0.20;94.40;;;;;;5016200;28;20053;-73
2023/04/28 01:53:19;;;;;;;16.67;6.03;;;-0.20;94.80;;;;;;5022893;28;20046;-73
2023/04/28 01:55:46;;;;;;;15.45;5.38;;;-0.20;95.20;;;;;;5024127;28;20050;-73
2023/04/28 01:58:13;;;;;;;16.70;5.78;;;-0.20;95.40;;;;;;5019685;28;20049;-73
2023/04/28 02:00:40;;;;;;;15.40;6.45;;;-0.20;95.40;;;;;;5022228;28;20779;-73
2023/04/28 02:03:07;;;;;;;17.77;6.47;;;-0.20;95.60;;;;;;5018081;28;20054;-73
2023/04/28 02:05:34;;;;;;;18.50;6.47;;;-0.20;95.80;;;;;;5017315;28;20068;-73
2023/04/28 02:08:00;;;;;;;15.60;6.25;;;-0.30;96.20;;;;;;5017440;28;20115;-73
2023/04/28 02:10:27;;;;;;;22.10;7.32;;;-0.30;96.30;;;;;;5023700;28;20099;-73
2023/04/28 02:12:54;;;;;;;17.35;6.25;;;-0.30;96.50;;;;;;5024583;28;20099;-73
2023/04/28 02:15:21;;;;;;;20.73;7.00;;;-0.30;96.90;;;;;;5024180;28;20045;-73
2023/04/28 02:20:34;;;;;;;13.88;6.32;;;-0.30;97.00;;;;;;4945938;28;20090;-73
2023/04/28 02:23:01;;;;;;;16.42;6.82;;;-0.30;97.50;;;;;;4945012;28;20567;-73
2023/04/28 02:25:28;;;;;;;21.95;7.07;;;-0.40;97.20;;;;;;4942956;28;20066;-73
2023/04/28 02:27:55;;;;;;;13.10;6.13;;;-0.40;97.50;;;;;;4944243;28;20051;-73
2023/04/28 02:30:21;;;;;;;14.32;6.63;;;-0.40;97.50;;;;;;4946268;28;20049;-73
2023/04/28 02:32:48;;;;;;;14.18;6.03;;;-0.40;97.60;;;;;;4944479;28;20501;-73
2023/04/28 02:35:15;;;;;;;18.80;7.05;;;-0.40;97.20;;;;;;4945285;28;20452;-73
2023/04/28 02:37:42;;;;;;;15.18;7.15;;;-0.40;97.60;;;;;;4946719;28;20138;-74
2023/04/28 02:40:09;;;;;;;15.82;6.55;;;-0.40;97.30;;;;;;4942741;28;20058;-73
2023/04/28 02:42:36;;;;;;;18.92;7.45;;;-0.50;97.10;;;;;;4944758;28;20091;-73
2023/04/28 02:45:04;;;;;;;19.23;7.15;;;-0.50;97.70;;;;;;4950056;28;20046;-79
2023/04/28 02:47:31;;;;;;;17.98;7.55;;;-0.50;97.80;;;;;;4957839;28;20055;-79
2023/04/28 02:49:57;;;;;;;16.77;8.00;;;-0.50;97.90;;;;;;4953536;28;20086;-78
2023/04/28 02:52:24;;;;;;;13.75;6.05;;;-0.50;97.60;;;;;;4956508;28;20051;-79
2023/04/28 02:54:53;;;;;;;17.67;7.07;;;-0.50;97.30;;;;;;4951602;28;20066;-78
2023/04/28 02:57:20;;;;;;;14.07;6.25;;;-0.50;97.20;;;;;;4956416;28;20507;-79
2023/04/28 02:59:47;;;;;;;17.83;6.88;;;-0.60;96.70;;;;;;4950371;28;20396;-78
2023/04/28 03:02:14;;;;;;;18.80;7.32;;;-0.60;97.20;;;;;;4951731;28;20059;-78
2023/04/28 03:05:06;;;;;;;28.05;11.15;;;-0.60;96.70;;;;;;4951734;28;20488;-78
2023/04/28 03:07:33;;;;;;;26.10;10.88;;;-0.70;96.40;;;;;;4945260;28;20063;-73
2023/04/28 03:09:59;;;;;;;27.40;10.55;;;-0.70;96.60;;;;;;4951028;28;20062;-73
2023/04/28 03:12:26;;;;;;;24.95;9.02;;;-0.70;96.80;;;;;;4949967;28;20117;-73
2023/04/28 03:14:53;;;;;;;19.58;6.90;;;-0.70;96.10;;;;;;4950777;28;20055;-73
2023/04/28 03:17:20;;;;;;;18.52;8.00;;;-0.80;96.50;;;;;;4952137;28;20054;-73
2023/04/28 03:19:47;;;;;;;19.13;7.57;;;-0.80;96.40;;;;;;4949155;28;20118;-73
2023/04/28 03:22:13;;;;;;;22.33;8.00;;;-0.80;96.80;;;;;;4956770;28;20067;-73
2023/04/28 03:24:40;;;;;;;21.05;7.60;;;-0.80;96.50;;;;;;4950529;28;20481;-73
2023/04/28 03:27:07;;;;;;;18.13;7.72;;;-0.90;96.50;;;;;;4945879;28;20146;-73
2023/04/28 03:29:34;;;;;;;20.10;7.47;;;-0.90;96.60;;;;;;4940431;28;20804;-73
2023/04/28 03:32:01;;;;;;;19.45;7.03;;;-0.90;97.30;;;;;;4945218;28;20082;-73
2023/04/28 03:34:27;;;;;;;22.35;6.22;;;-0.90;97.50;;;;;;4949681;28;20065;-73
2023/04/28 03:36:54;;;;;;;17.45;7.55;;;-1.00;97.40;;;;;;4950611;28;20047;-73
2023/04/28 03:39:21;;;;;;;18.05;6.40;;;-1.00;97.70;;;;;;4945115;28;20055;-73
2023/04/28 03:41:48;;;;;;;21.30;7.25;;;-1.00;97.50;;;;;;4946389;28;20047;-73
2023/04/28 03:44:15;;;;;;;17.83;7.55;;;-1.00;98.10;;;;;;4950517;28;20762;-73
2023/04/28 03:46:42;;;;;;;17.08;6.68;;;-1.00;98.00;;;;;;4949381;28;20061;-73
2023/04/28 03:49:08;;;;;;;19.15;7.22;;;-1.00;98.10;;;;;;4943697;28;20136;-73
2023/04/28 03:51:35;;;;;;;22.77;7.05;;;-1.00;98.30;;;;;;4949799;28;20059;-73
2023/04/28 03:54:02;;;;;;;18.48;7.25;;;-1.00;98.20;;;;;;4945779;28;20573;-73
2023/04/28 03:56:29;;;;;;;14.85;6.97;;;-1.00;98.20;;;;;;4948923;28;20385;-73
2023/04/28 03:58:56;;;;;;;24.80;7.15;;;-1.00;98.50;;;;;;4956961;28;20134;-73
2023/04/28 04:01:23;;;;;;;22.52;6.45;;;-1.00;98.30;;;;;;4946471;28;20053;-73
2023/04/28 04:03:52;;;;;;;18.85;6.97;;;-1.00;98.40;;;;;;4946265;28;20445;-73
2023/04/28 04:06:20;;;;;;;20.38;7.40;;;-1.00;98.60;;;;;;4954067;28;20431;-73
2023/04/28 04:08:48;;;;;;;22.23;6.93;;;-0.90;98.80;;;;;;4956508;28;20085;-73
2023/04/28 04:11:15;;;;;;;15.68;6.35;;;-1.00;97.90;;;;;;4956032;28;20479;-73
2023/04/28 04:13:41;;;;;;;18.23;8.15;;;-1.00;98.20;;;;;;4953572;28;20864;-73
2023/04/28 04:16:08;;;;;;;16.27;7.15;;;-0.90;98.70;;;;;;4954702;28;20055;-73
2023/04/28 04:18:35;;;;;;;14.55;6.38;;;-0.90;98.80;;;;;;4947202;28;20479;-73
2023/04/28 04:21:02;;;;;;;18.70;7.22;;;-0.90;98.80;;;;;;4947365;28;20121;-73
2023/04/28 04:23:29;;;;;;;20.70;8.55;;;-0.80;99.10;;;;;;4947325;28;20481;-73
2023/04/28 04:25:56;;;;;;;22.95;8.60;;;-0.80;98.30;;;;;;4948568;28;20142;-73
2023/04/28 04:28:23;;;;;;;20.48;7.50;;;-0.80;98.60;;;;;;4948822;28;20054;-72
2023/04/28 04:30:50;;;;;;;22.40;8.15;;;-0.70;99.10;;;;;;4948344;28;20411;-73
2023/04/28 04:33:54;;;;;;;21.73;9.10;;;-0.70;98.80;;;;;;4949292;28;20169;-73
2023/04/28 04:36:21;;;;;;;25.17;8.32;;;-0.60;99.10;;;;;;4949811;28;20062;-78
2023/04/28 04:38:48;;;;;;;23.50;8.48;;;-0.60;99.20;;;;;;4957239;28;20078;-78
2023/04/28 04:41:15;;;;;;;17.85;8.43;;;-0.50;99.50;;;;;;4958672;28;20048;-78
2023/04/28 04:43:41;;;;;;;26.42;9.20;;;-0.40;99.80;;;;;;4955058;28;20127;-78
2023/04/28 04:46:08;;;;;;;30.58;9.40;;;-0.40;100.00;;;;;;4953987;28;20081;-78
2023/04/28 04:48:35;;;;;;;30.52;10.88;;;-0.30;99.70;;;;;;4958160;28;20055;-80
2023/04/28 04:51:02;;;;;;;29.63;10.43;;;-0.20;99.70;;;;;;4957075;28;20563;-79
2023/04/28 04:53:29;;;;;;;24.10;10.30;;;-0.20;99.70;;;;;;4964814;28;20646;-79
2023/04/28 04:55:56;;;;;;;23.08;9.88;;;-0.10;99.60;;;;;;4957894;28;20051;-81
2023/04/28 04:59:06;;;;;;;26.98;10.68;;;0.00;99.70;;;;;;4962923;28;20050;-85
2023/04/28 05:01:33;;;;;;;30.98;11.25;;;0.00;99.50;;;;;;4951868;28;20105;-73
2023/04/28 05:04:00;;;;;;;29.45;10.10;;;0.10;99.50;;;;;;4947584;28;20058;-73
2023/04/28 05:06:27;;;;;;;23.70;9.02;;;0.10;99.30;;;;;;4959318;28;20054;-74
2023/04/28 05:08:55;;;;;;;21.17;8.55;;;0.20;98.90;;;;;;4949989;28;20050;-76
2023/04/28 05:11:22;;;;;;;22.17;9.30;;;0.20;99.10;;;;;;4951396;28;20085;-75
2023/04/28 05:13:49;;;;;;;30.08;10.23;;;0.30;99.00;;;;;;4955671;28;20051;-76
2023/04/28 05:16:16;;;;;;;31.77;10.73;;;0.40;99.30;;;;;;4962725;28;20051;-77
2023/04/28 05:21:46;;;;;;;30.67;11.75;;;0.60;98.80;;;;;;4987214;28;20713;-81
2023/04/28 05:24:14;;;;;;;23.45;10.75;;;0.70;99.00;;;;;;4987371;28;20050;-75
2023/04/28 05:26:41;;;;;;;24.60;10.32;;;0.70;98.70;;;;;;4980185;28;20062;-76
2023/04/28 05:29:08;;;;;;;23.77;8.68;;;0.90;98.60;;;;;;4992035;28;20161;-75
2023/04/28 05:31:35;;;;;;;19.88;8.88;;;1.00;98.70;;;;;;4987641;28;20058;-75
2023/04/28 05:34:01;;;;;;;23.02;8.18;;;1.10;98.70;;;;;;5001806;28;20073;-75
2023/04/28 05:36:28;;;;;;;26.77;9.65;;;1.30;98.60;;;;;;4996610;28;20256;-73
2023/04/28 05:38:55;;;;;;;31.90;9.82;;;1.40;98.70;;;;;;4990306;28;20046;-74
2023/04/28 05:41:22;;;;;;;33.03;9.73;;;1.70;98.40;;;;;;5018833;28;20050;-75
2023/04/28 05:43:50;;;;;;;34.00;9.90;;;1.90;97.50;;;;;;5006512;28;20093;-73
2023/04/28 05:46:17;;;;;;;23.50;9.32;;;2.20;96.50;;;;;;4982643;28;20091;-73
2023/04/28 05:48:56;;;;;;;34.83;10.10;;;2.40;95.30;;;;;;4982762;28;20463;-73
2023/04/28 05:51:23;;;;;;;27.63;9.77;;;2.50;94.80;;;;;;4985124;28;20057;-73
2023/04/28 05:53:50;;;;;;;26.38;8.02;;;2.70;94.30;;;;;;4993873;28;20064;-73
2023/04/28 05:56:17;;;;;;;22.45;9.68;;;2.90;93.60;;;;;;5008245;28;20053;-73
2023/04/28 05:58:44;;;;;;;28.75;9.88;;;3.10;92.90;;;;;;4994605;28;20050;-73
2023/04/28 06:01:11;;;;;;;26.33;9.20;;;3.30;92.40;;;;;;4999269;28;20054;-73
2023/04/28 06:03:41;;;;;;;20.23;8.90;;;3.50;91.70;;;;;;5000545;28;20057;-73
2023/04/28 06:06:09;;;;;;;28.40;9.10;;;3.80;90.80;;;;;;5010127;28;20054;-73
2023/04/28 06:08:37;;;;;;;24.33;8.20;;;4.10;88.90;;;;;;4999715;28;20141;-73
2023/04/28 06:11:04;;;;;;;21.13;8.40;;;4.30;87.60;;;;;;4991558;28;20058;-73
2023/04/28 06:13:31;;;;;;;19.63;8.35;;;4.50;86.70;;;;;;4996922;28;20128;-73
2023/04/28 06:15:58;;;;;;;15.90;7.38;;;4.80;85.70;;;;;;4982030;28;20491;-73
2023/04/28 06:18:26;;;;;;;18.50;8.02;;;5.10;84.50;;;;;;4983081;28;20064;-73
2023/04/28 06:20:53;;;;;;;14.90;7.32;;;5.30;82.40;;;;;;4989020;28;20050;-73
2023/04/28 06:23:19;;;;;;;13.35;6.43;;;5.40;82.10;;;;;;4984534;28;20050;-73
2023/04/28 06:29:05;;;;;;;15.73;6.88;;;5.80;80.50;;;;;;5204874;23;20127;-78
2023/04/28 06:31:31;;;;;;;16.35;6.50;;;6.10;81.00;;;;;;4989863;28;20046;-79
2023/04/28 06:33:58;;;;;;;15.75;5.75;;;6.20;79.70;;;;;;4981368;28;20045;-81
2023/04/28 06:36:27;;;;;;;20.55;5.90;;;6.80;80.50;;;;;;4982631;28;20053;-79
2023/04/28 06:38:53;;;;;;;12.25;5.32;;;8.00;77.30;;;;;;4998591;28;20053;-78
2023/04/28 06:41:20;;;;;;;21.63;5.40;;;9.20;70.20;;;;;;4994636;28;20041;-79
2023/04/28 06:43:47;;;;;;;17.15;5.22;;;9.80;69.70;;;;;;5002078;28;20061;-78
2023/04/28 06:46:14;;;;;;;13.48;4.65;;;10.70;66.70;;;;;;4993318;28;20060;-78
2023/04/28 06:48:42;;;;;;;13.27;4.95;;;11.50;62.40;;;;;;5003466;28;20086;-79
2023/04/28 06:51:08;;;;;;;11.63;4.53;;;12.10;62.20;;;;;;5005905;28;20050;-79
2023/04/28 06:56:47;;;;;;;19.13;3.88;;;13.20;59.30;;;;;;5000159;28;20101;-72
2023/04/28 06:59:14;;;;;;;10.77;3.72;;;13.60;56.80;;;;;;5004424;28;20057;-73
2023/04/28 07:01:41;;;;;;;11.68;4.22;;;14.40;55.90;;;;;;5002964;28;20061;-73
2023/04/28 07:04:36;;;;;;;8.50;4.25;;;14.20;55.80;;;;;;5006349;28;20056;-78
2023/04/28 07:07:07;;;;;;;10.23;3.45;;;14.80;56.60;;;;;;5000696;28;20058;-78
2023/04/28 07:09:34;;;;;;;5.80;2.47;;;15.80;52.30;;;;;;5010399;28;20057;-78
2023/04/28 07:12:02;;;;;;;6.95;2.75;;;16.20;48.50;;;;;;5009959;28;20058;-78
2023/04/28 07:14:29;;;;;;;5.75;2.80;;;16.20;48.60;;;;;;5002700;28;20361;-76
2023/04/28 07:16:56;;;;;;;13.30;2.72;;;17.00;48.10;;;;;;5010696;28;20049;-77
2023/04/28 07:19:23;;;;;;;9.25;1.98;;;17.00;48.50;;;;;;5003337;28;20055;-77
2023/04/28 07:21:50;;;;;;;10.32;2.53;;;17.30;46.30;;;;;;5008377;28;20053;-77
2023/04/28 07:24:17;;;;;;;7.80;2.05;;;17.10;44.40;;;;;;5002272;28;20046;-78
2023/04/28 07:26:44;;;;;;;5.35;2.13;;;17.30;44.50;;;;;;5004567;28;20064;-77
2023/04/28 07:29:12;;;;;;;6.22;1.90;;;17.70;46.10;;;;;;4996067;28;20101;-77
2023/04/28 07:31:39;;;;;;;5.13;2.10;;;18.00;45.90;;;;;;5002303;28;20050;-77
2023/04/28 07:34:06;;;;;;;7.50;2.72;;;17.70;45.90;;;;;;5003711;28;20068;-77
2023/04/28 07:36:33;;;;;;;8.88;2.03;;;17.60;43.90;;;;;;5000212;28;20618;-77
2023/04/28 07:39:01;;;;;;;2.72;1.98;;;18.20;44.10;;;;;;5002220;28;20050;-77
2023/04/28 07:41:28;;;;;;;9.75;1.52;;;18.50;41.20;;;;;;5008580;28;20170;-77
2023/04/28 07:43:55;;;;;;;7.90;2.40;;;18.90;40.30;;;;;;5000946;28;20041;-77
2023/04/28 07:46:22;;;;;;;6.65;1.90;;;18.90;39.30;;;;;;5007418;28;20125;-77
2023/04/28 07:48:49;;;;;;;17.52;2.60;;;18.50;41.50;;;;;;5006079;28;20065;-77
2023/04/28 07:51:16;;;;;;;11.07;2.10;;;18.50;41.80;;;;;;5005121;28;20732;-77
2023/04/28 07:53:43;;;;;;;5.15;1.65;;;19.00;42.00;;;;;;5003911;28;20057;-77
2023/04/28 07:56:11;;;;;;;4.00;2.28;;;19.20;41.60;;;;;;5001125;28;20503;-77
2023/04/28 07:58:37;;;;;;;5.13;1.60;;;19.50;41.70;;;;;;5009873;28;20140;-77
2023/04/28 08:01:04;;;;;;;15.32;2.13;;;19.60;39.70;;;;;;5007183;28;20082;-77
2023/04/28 08:03:31;;;;;;;6.88;1.50;;;19.70;40.10;;;;;;5008940;28;20042;-77
2023/04/28 08:05:59;;;;;;;15.30;2.20;;;19.80;40.20;;;;;;5007215;28;20068;-77
2023/04/28 08:08:27;;;;;;;6.35;1.70;;;20.10;39.80;;;;;;4996511;28;20085;-77
2023/04/28 08:10:53;;;;;;;7.47;1.90;;;20.00;40.20;;;;;;5009487;28;20054;-77
2023/04/28 08:13:20;;;;;;;6.03;1.58;;;20.40;38.50;;;;;;5005684;28;20052;-77
2023/04/28 08:15:49;;;;;;;8.23;2.15;;;20.80;38.00;;;;;;5010236;28;20046;-77
2023/04/28 08:18:15;;;;;;;11.65;2.25;;;20.60;38.30;;;;;;4998730;28;20141;-76
2023/04/28 08:20:42;;;;;;;4.55;1.58;;;20.70;38.70;;;;;;5006127;28;20053;-78
2023/04/28 08:23:09;;;;;;;5.25;1.60;;;20.50;36.30;;;;;;5006184;28;20060;-77
2023/04/28 08:25:36;;;;;;;8.82;1.95;;;20.40;38.30;;;;;;5007262;28;20049;-77
2023/04/28 08:28:05;;;;;;;2.00;1.08;;;20.30;38.50;;;;;;5002751;28;20050;-78
2023/04/28 08:30:32;;;;;;;6.38;1.83;;;20.10;36.60;;;;;;5006724;28;20092;-77
2023/04/28 08:32:59;;;;;;;5.25;2.03;;;20.20;36.90;;;;;;5001690;28;20189;-78
2023/04/28 08:35:26;;;;;;;6.53;1.60;;;20.30;35.00;;;;;;5009108;28;20080;-77
2023/04/28 08:37:53;;;;;;;5.55;1.60;;;20.20;36.30;;;;;;5008358;28;20407;-77
2023/04/28 08:40:20;;;;;;;7.97;1.30;;;20.30;36.60;;;;;;5008342;28;20049;-77
2023/04/28 08:42:47;;;;;;;5.07;1.48;;;20.40;35.70;;;;;;4999906;28;20054;-77
2023/04/28 08:45:15;;;;;;;7.78;1.85;;;20.40;36.40;;;;;;4998867;28;20589;-77
2023/04/28 08:47:46;;;;;;;9.63;2.30;;;20.60;37.60;;;;;;5003856;28;20053;-77
2023/04/28 08:50:14;;;;;;;8.65;1.83;;;20.70;36.40;;;;;;5011605;28;20057;-77
2023/04/28 08:52:42;;;;;;;8.32;1.50;;;21.00;36.20;;;;;;5004302;23;20064;-73
2023/04/28 08:55:11;;;;;;;8.48;1.60;;;21.20;35.50;;;;;;5005759;28;20046;-73
2023/04/28 08:57:42;;;;;;;4.70;1.67;;;21.60;35.00;;;;;;5006630;28;20061;-74
2023/04/28 09:00:10;;;;;;;4.47;1.10;;;22.00;35.00;;;;;;4981855;28;20049;-72
2023/04/28 09:02:40;;;;;;;6.68;1.30;;;22.40;34.40;;;;;;4994724;28;20108;-72
2023/04/28 09:05:08;;;;;;;7.00;2.13;;;22.80;34.00;;;;;;5004759;23;20149;-72
2023/04/28 09:07:36;;;;;;;4.03;1.60;;;23.00;34.80;;;;;;4982418;28;20144;-72
2023/04/28 09:10:15;;;;;;;9.35;1.80;;;23.10;32.70;;;;;;5009133;28;20497;-72
2023/04/28 09:12:43;;;;;;;5.53;1.30;;;22.60;32.60;;;;;;4982885;28;20057;-72
2023/04/28 09:15:10;;;;;;;4.82;1.42;;;22.80;31.80;;;;;;4996264;28;20054;-72
2023/04/28 09:17:50;;;;;;;4.30;1.42;;;22.90;33.60;;;;;;4999782;28;20045;-72
2023/04/28 09:20:25;;;;;;;8.77;1.35;;;22.90;31.40;;;;;;5005442;28;20148;-72
2023/04/28 09:22:52;;;;;;;;;;;22.60;32.40;;;;;;4997629;28;20057;-72
2023/04/28 09:25:21;;;;;;;3.35;1.63;;;22.50;31.90;;;;;;4998396;28;20396;-72
2023/04/28 09:27:51;;;;;;;7.13;1.50;;;22.80;34.00;;;;;;4999355;28;20235;-72
2023/04/28 09:30:19;;;;;;;9.70;1.75;;;22.60;33.80;;;;;;4998803;28;20058;-71
2023/04/28 09:33:04;;;;;;;8.27;2.97;;;23.60;33.30;;;;;;4996416;28;20154;-72
2023/04/28 09:35:47;;;;;;;2.78;1.23;;;23.50;30.70;;;;;;4995358;28;20053;-73
2023/04/28 09:38:15;;;;;;;3.15;1.40;;;23.10;32.20;;;;;;4977802;28;20053;-72
2023/04/28 09:41:08;;;;;;;4.95;1.55;;;23.90;33.80;;;;;;5004192;28;20053;-72
2023/04/28 09:43:35;;;;;;;3.38;1.50;;;23.60;32.00;;;;;;4983596;28;20057;-72
2023/04/28 09:49:00;;;;;;;10.23;1.90;;;24.20;32.00;;;;;;4967171;28;20136;-73
2023/04/28 09:51:27;;;;;;;12.82;1.65;;;24.80;31.80;;;;;;4962323;28;20051;-73
2023/04/28 09:53:58;;;;;;;4.40;2.08;;;25.70;31.70;;;;;;4966742;28;20054;-73
2023/04/28 09:56:28;;;;;;;5.78;1.50;;;26.20;31.10;;;;;;4972346;28;20699;-73
2023/04/28 09:59:00;;;;;;;3.33;1.52;;;25.70;30.10;;;;;;4960586;28;20054;-73
2023/04/28 10:01:32;;;;;;;6.75;1.60;;;24.90;32.00;;;;;;4960213;28;20066;-73
2023/04/28 10:04:01;;;;;;;4.47;1.98;;;23.90;32.10;;;;;;4961202;28;20783;-73
2023/04/28 10:06:29;;;;;;;4.82;1.70;;;24.00;31.80;;;;;;4955343;28;20051;-73
2023/04/28 10:08:58;;;;;;;3.78;1.77;;;24.30;32.30;;;;;;4947126;28;20047;-73
2023/04/28 10:11:27;;;;;;;4.75;1.63;;;24.00;31.10;;;;;;4941584;28;20055;-73
2023/04/28 10:13:54;;;;;;;9.68;1.95;;;24.10;31.70;;;;;;4958707;28;20438;-73
2023/04/28 10:16:22;;;;;;;2.53;1.40;;;23.50;31.90;;;;;;4956685;28;20101;-74
2023/04/28 10:18:50;;;;;;;4.63;1.58;;;23.30;33.50;;;;;;4948596;28;20054;-77
2023/04/28 10:21:20;;;;;;;3.65;1.50;;;23.40;31.90;;;;;;4964403;28;20482;-75
2023/04/28 10:24:02;;;;;;;6.45;1.80;;;24.20;32.00;;;;;;4958197;28;20057;-76
2023/04/28 10:26:55;;;;;;;12.60;2.80;;;24.60;32.00;;;;;;4957888;28;20090;-75
2023/04/28 10:29:25;;;;;;;7.57;1.52;;;25.00;31.70;;;;;;4956171;28;20059;-76
2023/04/28 10:32:14;;;;;;;4.97;1.58;;;25.30;29.80;;;;;;4943726;28;20054;-76
2023/04/28 10:34:41;;;;;;;4.07;1.50;;;25.70;31.20;;;;;;4962052;28;20782;-76
2023/04/28 10:37:08;;;;;;;4.25;1.20;;;26.60;30.70;;;;;;4962047;28;20101;-76
2023/04/28 10:39:35;;;;;;;13.80;1.90;;;26.00;29.70;;;;;;4971825;28;20051;-76
2023/04/28 10:42:02;;;;;;;10.38;1.77;;;26.10;31.50;;;;;;4966404;28;20415;-75
2023/04/28 10:44:29;;;;;;;7.72;1.63;;;26.70;30.70;;;;;;4963026;28;20077;-74
2023/04/28 10:47:03;;;;;;;7.55;3.50;;;26.80;29.10;;;;;;4948524;28;20135;-76
2023/04/28 10:49:57;;;;;;;5.40;1.58;;;27.00;29.20;;;;;;4964851;28;20054;-75
2023/04/28 10:52:47;;;;;;;7.55;2.10;;;27.10;28.60;;;;;;4957693;28;20122;-74
2023/04/28 10:55:27;;;;;;;5.97;1.30;;;27.10;29.30;;;;;;4953784;23;20054;-74
2023/04/28 10:58:18;;;;;;;5.57;1.50;;;27.40;29.80;;;;;;4981210;28;20062;-74
2023/04/28 11:00:46;;;;;;;2.13;1.40;;;27.50;29.40;;;;;;4976155;28;20050;-74
2023/04/28 11:03:45;;;;;;;2.60;1.20;;;26.70;29.20;;;;;;4982437;28;20061;-74
2023/04/28 11:06:27;;;;;;;7.43;1.55;;;26.40;30.50;;;;;;4966756;28;20062;-76
2023/04/28 11:09:14;;;;;;;7.72;1.33;;;27.00;28.30;;;;;;4972393;28;20050;-77
2023/04/28 11:11:54;;;;;;;3.58;1.65;;;26.30;28.00;;;;;;4984594;28;20050;-77
2023/04/28 11:14:21;;;;;;;3.70;1.42;;;25.20;31.00;;;;;;4971192;28;20491;-77
2023/04/28 11:17:12;;;;;;;10.45;1.92;;;25.30;29.70;;;;;;4972116;28;20054;-78
2023/04/28 11:19:42;;;;;;;2.85;1.50;;;25.50;29.80;;;;;;4974312;28;20058;-76
2023/04/28 11:22:17;;;;;;;4.57;1.30;;;25.50;31.00;;;;;;4969070;28;20762;-78
2023/04/28 11:24:57;;;;;;;;;;;24.50;29.20;;;;;;4983902;28;20122;-78
2023/04/28 11:27:25;;;;;;;5.75;1.70;;;24.70;31.90;;;;;;4975133;28;19937;-78
2023/04/28 11:29:53;;;;;;;3.47;1.33;;;25.00;32.20;;;;;;4995428;23;20050;-80
2023/04/28 11:32:31;;;;;;;4.43;1.45;;;24.50;30.40;;;;;;4979382;28;20518;-78
2023/04/28 11:34:58;;;;;;;30.38;3.75;;;24.60;30.10;;;;;;4982595;28;20045;-81
2023/04/28 11:37:25;;;;;;;6.72;1.52;;;24.50;30.80;;;;;;5003606;28;20428;-82
2023/04/28 11:39:52;;;;;;;5.53;2.13;;;25.30;31.40;;;;;;4994793;28;20046;-76
2023/04/28 11:42:19;;;;;;;4.65;1.50;;;26.10;30.30;;;;;;4975259;28;20052;-76
2023/04/28 11:44:51;;;;;;;4.50;1.50;;;25.70;30.40;;;;;;4997569;28;20069;-77
2023/04/28 11:47:29;;;;;;;18.00;2.28;;;25.90;29.60;;;;;;4995465;28;20948;-76
2023/04/28 11:49:56;;;;;;;3.65;2.10;;;26.20;29.70;;;;;;4996816;28;20145;-76
2023/04/28 11:52:24;;;;;;;9.00;2.17;;;25.30;28.80;;;;;;4971977;28;20054;-76
2023/04/28 11:54:56;;;;;;;13.15;1.98;;;25.40;30.20;;;;;;4997498;28;20057;-76
2023/04/28 11:57:24;;;;;;;3.75;1.70;;;26.00;30.50;;;;;;4994978;28;20050;-76
2023/04/28 11:59:51;;;;;;;5.20;2.00;;;26.30;28.90;;;;;;4995450;28;20176;-76
2023/04/28 12:02:28;;;;;;;5.82;2.00;;;26.60;30.50;;;;;;4998373;28;20061;-76
2023/04/28 12:04:55;;;;;;;6.88;1.63;;;27.10;29.30;;;;;;4979966;28;20049;-76
2023/04/28 12:07:24;;;;;;;8.55;1.83;;;26.40;30.00;;;;;;4981240;28;20049;-76
2023/04/28 12:10:17;;;;;;;4.32;1.73;;;26.30;30.40;;;;;;4983872;28;20053;-76
2023/04/28 12:12:46;;;;;;;7.60;2.05;;;26.90;30.00;;;;;;4997773;28;20060;-76
2023/04/28 12:15:20;;;;;;;6.70;2.17;;;27.00;29.50;;;;;;5000886;28;20061;-76
2023/04/28 12:17:49;;;;;;;9.52;1.90;;;27.20;28.00;;;;;;5008030;28;20123;-76
2023/04/28 12:20:36;;;;;;;8.70;1.80;;;25.90;29.00;;;;;;5005029;28;20137;-76
2023/04/28 12:23:04;;;;;;;5.35;2.05;;;24.80;28.60;;;;;;4990034;28;20059;-76
2023/04/28 12:25:33;;;;;;;6.07;1.88;;;23.70;29.70;;;;;;5008428;28;20145;-76
2023/04/28 12:28:06;;;;;;;34.63;3.35;;;22.80;30.60;;;;;;4981678;28;20124;-76
2023/04/28 12:30:40;;;;;;;4.05;1.35;;;22.30;31.90;;;;;;5006863;28;20053;-76
2023/04/28 12:33:25;;;;;;;8.20;1.75;;;22.00;31.90;;;;;;4996491;28;20058;-77
2023/04/28 12:35:53;;;;;;;8.05;1.90;;;21.50;32.10;;;;;;4986841;28;20050;-76
2023/04/28 12:38:22;;;;;;;2.03;1.63;;;20.80;32.10;;;;;;4979109;28;20084;-76
2023/04/28 12:40:48;;;;;;;8.18;1.85;;;20.50;32.60;;;;;;5006429;28;20131;-76
2023/04/28 12:43:15;;;;;;;5.30;1.70;;;20.40;33.80;;;;;;4994408;28;20061;-76
2023/04/28 12:45:42;;;;;;;3.03;1.63;;;20.30;33.50;;;;;;4993871;28;20585;-76
2023/04/28 12:48:09;;;;;;;11.15;1.92;;;20.30;33.90;;;;;;4988187;28;20056;-76
2023/04/28 12:50:37;;;;;;;3.28;1.45;;;20.40;34.90;;;;;;5001063;28;20056;-76
2023/04/28 12:53:04;;;;;;;5.32;1.88;;;20.50;35.00;;;;;;5006204;28;20057;-76
2023/04/28 12:55:30;;;;;;;10.63;2.08;;;20.00;34.70;;;;;;4984916;28;20049;-76
2023/04/28 12:57:58;;;;;;;5.32;1.80;;;20.00;34.00;;;;;;4985703;28;20115;-76
2023/04/28 13:00:25;;;;;;;3.42;1.60;;;19.90;35.20;;;;;;4999768;28;20076;-75
2023/04/28 13:02:52;;;;;;;13.93;2.08;;;19.70;34.60;;;;;;4989166;28;20585;-76
2023/04/28 13:05:19;;;;;;;9.68;2.92;;;19.80;36.30;;;;;;4986095;28;20129;-76
2023/04/28 13:07:46;;;;;;;8.85;1.88;;;20.10;35.70;;;;;;4984402;28;20141;-79
2023/04/28 13:10:13;;;;;;;7.25;2.50;;;20.20;34.90;;;;;;4993196;28;20048;-80
2023/04/28 13:12:40;;;;;;;6.05;2.25;;;20.10;35.70;;;;;;4986950;28;20053;-80